Time;durP1;ratioP1;P1;durP2;ratioP2;P2;SDS_P1;SDS_P2;PMS_P1;PMS_P2;Temp;Humidity;BMP_temperature;BMP_pressure;BME280_temperature;BME280_humidity;BME280_pressure;Samples;Min_cycle;Max_cycle;Signal;HPM_P1;HPM_P2
2021/10/16 00:00:46;;;;;;;8.85;5.72;;;10.00;99.90;;;;;;5058559;28;20211;-74
2021/10/16 00:03:15;;;;;;;9.20;6.03;;;9.90;99.90;;;;;;5057978;28;20286;-74
2021/10/16 00:05:42;;;;;;;8.52;6.35;;;9.90;99.90;;;;;;5057541;28;20249;-73
2021/10/16 00:08:08;;;;;;;9.15;6.13;;;9.80;99.90;;;;;;5056044;28;20311;-74
2021/10/16 00:10:35;;;;;;;8.60;6.40;;;9.80;99.90;;;;;;5056916;28;20234;-74
2021/10/16 00:13:02;;;;;;;8.95;6.10;;;9.90;99.90;;;;;;5056921;28;20258;-75
2021/10/16 00:15:30;;;;;;;6.97;5.53;;;10.10;99.90;;;;;;5057847;28;20634;-74
2021/10/16 00:17:57;;;;;;;7.80;5.32;;;10.20;99.90;;;;;;5057346;28;20218;-74
2021/10/16 00:20:26;;;;;;;10.57;6.10;;;10.30;99.90;;;;;;5055809;28;20200;-77
2021/10/16 00:22:53;;;;;;;7.07;5.50;;;10.30;99.90;;;;;;5055410;28;20207;-76
2021/10/16 00:25:20;;;;;;;6.95;5.93;;;10.40;99.90;;;;;;5055804;28;20298;-76
2021/10/16 00:27:46;;;;;;;9.05;6.05;;;10.40;99.90;;;;;;5055804;28;20314;-72
2021/10/16 00:30:14;;;;;;;7.72;5.43;;;10.40;99.90;;;;;;5055369;28;20734;-71
2021/10/16 00:32:41;;;;;;;8.00;5.68;;;10.50;99.90;;;;;;5055201;28;20206;-72
2021/10/16 00:35:09;;;;;;;8.70;6.03;;;10.50;99.90;;;;;;5056753;28;20223;-73
2021/10/16 00:37:37;;;;;;;9.07;6.45;;;10.50;99.90;;;;;;5056891;28;20800;-73
2021/10/16 00:40:04;;;;;;;6.30;5.15;;;10.50;99.90;;;;;;5057114;28;20291;-74
2021/10/16 00:42:31;;;;;;;7.68;5.28;;;10.30;99.90;;;;;;5056709;28;20199;-72
2021/10/16 00:45:02;;;;;;;8.15;5.70;;;10.40;99.90;;;;;;5057064;28;20203;-74
2021/10/16 00:47:29;;;;;;;8.93;6.25;;;10.40;99.90;;;;;;5056740;28;20230;-73
2021/10/16 00:49:55;;;;;;;9.05;6.20;;;10.50;99.90;;;;;;5057138;28;20574;-74
2021/10/16 00:52:22;;;;;;;6.45;5.70;;;10.30;99.90;;;;;;5056460;28;20200;-73
2021/10/16 00:54:51;;;;;;;7.22;5.28;;;10.40;99.90;;;;;;5055510;28;20317;-73
2021/10/16 00:57:17;;;;;;;7.18;5.95;;;10.50;99.90;;;;;;5055490;28;20209;-73
2021/10/16 00:59:44;;;;;;;7.95;5.82;;;10.50;99.90;;;;;;5055494;28;20230;-73
2021/10/16 01:02:18;;;;;;;6.10;5.47;;;10.50;99.90;;;;;;5055595;28;20210;-73
2021/10/16 01:04:45;;;;;;;7.47;5.15;;;10.50;99.90;;;;;;5056472;28;20231;-73
2021/10/16 01:07:12;;;;;;;7.47;5.82;;;10.40;99.90;;;;;;5055627;28;20210;-73
2021/10/16 01:09:41;;;;;;;7.07;5.55;;;10.40;99.90;;;;;;5056284;28;20310;-73
2021/10/16 01:12:10;;;;;;;10.68;6.53;;;10.40;99.90;;;;;;5055638;28;20561;-73
2021/10/16 01:14:41;;;;;;;9.73;6.30;;;10.50;99.90;;;;;;5055794;28;20223;-73
2021/10/16 01:17:09;;;;;;;5.97;4.95;;;10.50;99.90;;;;;;5056580;28;20211;-74
2021/10/16 01:19:37;;;;;;;7.50;5.05;;;10.50;99.90;;;;;;5056297;28;20259;-74
2021/10/16 01:22:07;;;;;;;7.95;4.78;;;10.60;99.90;;;;;;5056041;28;20607;-73
2021/10/16 01:24:36;;;;;;;8.15;5.13;;;10.70;99.90;;;;;;5056147;28;20294;-74
2021/10/16 01:27:04;;;;;;;7.22;5.65;;;10.70;99.90;;;;;;5054946;28;20200;-73
2021/10/16 01:29:32;;;;;;;7.15;6.03;;;10.80;99.90;;;;;;5055151;28;20306;-73
2021/10/16 01:32:01;;;;;;;8.45;6.07;;;10.70;99.90;;;;;;5056179;28;20204;-73
2021/10/16 01:34:29;;;;;;;11.55;5.88;;;10.60;99.90;;;;;;5057164;28;20290;-73
2021/10/16 01:36:56;;;;;;;7.25;5.88;;;10.40;99.90;;;;;;5056383;28;20203;-73
2021/10/16 01:39:24;;;;;;;10.18;6.35;;;10.40;99.90;;;;;;5055792;28;20788;-73
2021/10/16 01:41:51;;;;;;;10.27;6.35;;;10.40;99.90;;;;;;5055328;28;20295;-72
2021/10/16 01:44:18;;;;;;;7.72;5.80;;;10.50;99.90;;;;;;5055711;28;20196;-73
2021/10/16 01:46:45;;;;;;;8.80;6.32;;;10.40;99.90;;;;;;5056155;28;20203;-73
2021/10/16 01:49:14;;;;;;;10.68;7.03;;;10.20;99.90;;;;;;5056284;28;20223;-73
2021/10/16 01:51:42;;;;;;;7.88;6.15;;;10.20;99.90;;;;;;5056091;28;20213;-73
2021/10/16 01:54:09;;;;;;;10.80;7.63;;;10.10;99.90;;;;;;5056456;28;20199;-73
2021/10/16 01:56:37;;;;;;;9.45;6.85;;;10.20;99.90;;;;;;5056698;28;20209;-73
2021/10/16 01:59:15;;;;;;;9.18;7.10;;;10.20;99.90;;;;;;5055919;28;20646;-73
2021/10/16 02:01:42;;;;;;;10.80;7.40;;;10.30;99.90;;;;;;5056430;28;20294;-73
2021/10/16 02:04:09;;;;;;;10.15;7.10;;;10.20;99.90;;;;;;5056534;28;20298;-73
2021/10/16 02:06:36;;;;;;;8.75;6.63;;;10.10;99.90;;;;;;5057265;28;20209;-73
2021/10/16 02:09:04;;;;;;;11.68;7.90;;;10.00;99.90;;;;;;5056343;28;20223;-73
2021/10/16 02:11:31;;;;;;;11.52;7.40;;;9.90;99.90;;;;;;5056855;28;20622;-73
2021/10/16 02:14:00;;;;;;;10.35;7.15;;;9.90;99.90;;;;;;5056264;28;20204;-73
2021/10/16 02:16:27;;;;;;;12.63;7.60;;;9.90;99.90;;;;;;5056200;28;20204;-73
2021/10/16 02:18:55;;;;;;;8.63;6.60;;;9.90;99.90;;;;;;5056547;28;20318;-73
2021/10/16 02:21:22;;;;;;;11.45;7.55;;;9.90;99.90;;;;;;5054463;28;20295;-72
2021/10/16 02:23:49;;;;;;;9.75;6.60;;;9.80;99.90;;;;;;5055087;28;20573;-73
2021/10/16 02:26:16;;;;;;;10.32;7.13;;;9.80;99.90;;;;;;5055325;28;20199;-73
2021/10/16 02:28:43;;;;;;;9.27;6.80;;;9.70;99.90;;;;;;5054214;28;20220;-73
2021/10/16 02:31:11;;;;;;;10.25;6.97;;;9.70;99.90;;;;;;5054422;28;20210;-73
2021/10/16 02:33:38;;;;;;;9.30;7.07;;;9.70;99.90;;;;;;5055213;28;20741;-73
2021/10/16 02:36:05;;;;;;;8.05;6.85;;;9.90;99.90;;;;;;5055328;28;20314;-73
2021/10/16 02:38:32;;;;;;;8.45;7.47;;;10.10;99.90;;;;;;5055126;28;20310;-73
2021/10/16 02:40:58;;;;;;;11.50;7.45;;;10.20;99.90;;;;;;5054916;28;20254;-73
2021/10/16 02:43:25;;;;;;;10.23;7.00;;;10.30;99.90;;;;;;5055243;28;20302;-73
2021/10/16 02:45:52;;;;;;;7.75;6.55;;;10.40;99.90;;;;;;5055449;28;20235;-74
2021/10/16 02:48:20;;;;;;;10.13;7.60;;;10.50;99.90;;;;;;5054652;28;20226;-73
2021/10/16 02:50:47;;;;;;;9.68;6.75;;;10.50;99.90;;;;;;5054653;28;20203;-73
2021/10/16 02:53:14;;;;;;;8.27;6.85;;;10.60;99.90;;;;;;5054580;28;20290;-73
2021/10/16 02:55:41;;;;;;;10.07;6.57;;;10.60;99.90;;;;;;5055325;28;20314;-73
2021/10/16 02:58:08;;;;;;;8.60;5.72;;;10.70;99.90;;;;;;5058745;28;20318;-73
2021/10/16 03:00:34;;;;;;;9.70;6.90;;;10.80;99.90;;;;;;5058518;28;20690;-73
2021/10/16 03:03:01;;;;;;;10.70;6.88;;;10.80;99.90;;;;;;5058994;28;20298;-73
2021/10/16 03:05:29;;;;;;;11.25;7.22;;;10.70;99.90;;;;;;5058518;28;20231;-74
2021/10/16 03:07:56;;;;;;;8.45;6.47;;;10.70;99.90;;;;;;5058049;28;20310;-73
2021/10/16 03:10:23;;;;;;;10.63;7.03;;;10.60;99.90;;;;;;5058463;28;20199;-74
2021/10/16 03:12:50;;;;;;;9.75;7.18;;;10.50;99.90;;;;;;5058557;28;20295;-73
2021/10/16 03:15:16;;;;;;;12.07;8.00;;;10.40;99.90;;;;;;5058226;28;20685;-73
2021/10/16 03:17:43;;;;;;;11.77;6.78;;;10.30;99.90;;;;;;5058545;28;20322;-73
2021/10/16 03:20:11;;;;;;;11.98;6.63;;;10.30;99.90;;;;;;5058158;28;20204;-73
2021/10/16 03:22:39;;;;;;;11.00;7.20;;;10.20;99.90;;;;;;5058657;28;20210;-72
2021/10/16 03:25:07;;;;;;;11.10;7.60;;;10.20;99.90;;;;;;5058287;28;20203;-73
2021/10/16 03:27:34;;;;;;;9.05;7.40;;;10.20;99.90;;;;;;5058924;28;20208;-73
2021/10/16 03:30:01;;;;;;;11.30;8.13;;;10.20;99.90;;;;;;5058792;28;20211;-73
2021/10/16 03:32:27;;;;;;;10.95;7.90;;;10.10;99.90;;;;;;5057594;28;20756;-73
2021/10/16 03:34:54;;;;;;;8.98;6.63;;;10.20;99.90;;;;;;5057626;28;20406;-73
2021/10/16 03:37:21;;;;;;;10.60;6.80;;;10.30;99.90;;;;;;5057892;28;20298;-73
2021/10/16 03:39:49;;;;;;;8.93;7.03;;;10.30;99.90;;;;;;5058136;28;20208;-73
2021/10/16 03:42:16;;;;;;;11.23;6.65;;;10.40;99.90;;;;;;5057010;28;20291;-72
2021/10/16 03:44:43;;;;;;;9.30;6.68;;;10.40;99.90;;;;;;5056805;28;20294;-73
2021/10/16 03:47:10;;;;;;;9.80;7.15;;;10.50;99.90;;;;;;5056242;28;20625;-73
2021/10/16 03:49:36;;;;;;;10.32;7.00;;;10.40;99.90;;;;;;5056091;28;20226;-73
2021/10/16 03:52:04;;;;;;;8.68;6.53;;;10.40;99.90;;;;;;5056236;28;20307;-73
2021/10/16 03:54:30;;;;;;;7.97;6.80;;;10.40;99.90;;;;;;5056164;28;20199;-73
2021/10/16 03:56:59;;;;;;;9.10;7.30;;;10.40;99.90;;;;;;5057029;28;20643;-73
2021/10/16 03:59:25;;;;;;;12.82;7.63;;;10.50;99.90;;;;;;5057106;28;20322;-73
2021/10/16 04:01:52;;;;;;;10.75;7.55;;;10.50;99.90;;;;;;5056431;28;20305;-73
2021/10/16 04:04:19;;;;;;;8.00;6.30;;;10.50;99.90;;;;;;5056749;28;20246;-73
2021/10/16 04:06:46;;;;;;;10.32;7.13;;;10.60;99.90;;;;;;5056640;28;20213;-73
2021/10/16 04:09:13;;;;;;;8.70;6.53;;;10.70;99.90;;;;;;5055561;28;20245;-73
2021/10/16 04:11:39;;;;;;;9.68;6.60;;;10.70;99.90;;;;;;5056495;28;20662;-72
2021/10/16 04:14:08;;;;;;;10.15;6.82;;;10.70;99.90;;;;;;5057209;28;20294;-73
2021/10/16 04:16:34;;;;;;;9.15;6.88;;;10.60;99.90;;;;;;5057998;28;20318;-73
2021/10/16 04:19:01;;;;;;;11.32;6.60;;;10.40;99.90;;;;;;5058077;28;20219;-73
2021/10/16 04:21:28;;;;;;;10.68;7.30;;;10.40;99.90;;;;;;5057979;28;20270;-72
2021/10/16 04:23:55;;;;;;;9.57;6.78;;;10.40;99.90;;;;;;5057845;28;20549;-73
2021/10/16 04:26:22;;;;;;;9.70;7.82;;;10.30;99.90;;;;;;5058426;28;20271;-73
2021/10/16 04:28:48;;;;;;;8.80;6.72;;;10.20;99.90;;;;;;5058071;28;20317;-73
2021/10/16 04:31:17;;;;;;;11.98;6.53;;;10.20;99.90;;;;;;5057981;28;20207;-72
2021/10/16 04:33:43;;;;;;;10.30;6.55;;;10.10;99.90;;;;;;5057742;28;20276;-73
2021/10/16 04:36:10;;;;;;;10.82;7.85;;;10.20;99.90;;;;;;5057331;28;20215;-73
2021/10/16 04:38:37;;;;;;;8.63;6.90;;;10.20;99.90;;;;;;5057583;28;20658;-73
2021/10/16 04:41:04;;;;;;;8.45;6.10;;;10.20;99.90;;;;;;5057793;28;20294;-72
2021/10/16 04:43:31;;;;;;;9.52;7.50;;;10.10;99.90;;;;;;5057217;28;20199;-73
2021/10/16 04:45:58;;;;;;;9.30;7.22;;;10.30;99.90;;;;;;5057967;28;20238;-73
2021/10/16 04:48:26;;;;;;;12.60;7.10;;;10.40;99.90;;;;;;5056751;28;20313;-73
2021/10/16 04:50:54;;;;;;;8.60;7.13;;;10.40;99.90;;;;;;5057436;28;20298;-73
2021/10/16 04:53:20;;;;;;;10.80;7.80;;;10.40;99.90;;;;;;5057738;28;20566;-72
2021/10/16 04:55:49;;;;;;;9.63;7.28;;;10.30;99.90;;;;;;5057782;28;20567;-73
2021/10/16 04:58:16;;;;;;;10.43;7.72;;;10.20;99.90;;;;;;5058068;28;20219;-73
2021/10/16 05:00:43;;;;;;;9.50;7.38;;;10.10;99.90;;;;;;5057758;28;20741;-73
2021/10/16 05:03:10;;;;;;;9.82;8.25;;;10.10;99.90;;;;;;5056988;28;20293;-73
2021/10/16 05:05:38;;;;;;;9.18;7.65;;;10.10;99.90;;;;;;5057360;28;20206;-73
2021/10/16 05:08:06;;;;;;;11.38;7.72;;;10.10;99.90;;;;;;5057628;28;20253;-73
2021/10/16 05:10:34;;;;;;;10.45;7.70;;;10.00;99.90;;;;;;5057394;28;20210;-73
2021/10/16 05:13:01;;;;;;;11.27;7.53;;;10.10;99.90;;;;;;5056137;28;20210;-73
2021/10/16 05:15:27;;;;;;;11.30;7.20;;;10.20;99.90;;;;;;5056416;28;20229;-73
2021/10/16 05:17:55;;;;;;;11.13;8.20;;;10.30;99.90;;;;;;5054709;28;20230;-73
2021/10/16 05:20:22;;;;;;;12.13;7.72;;;10.40;99.90;;;;;;5055474;28;20209;-72
2021/10/16 05:22:50;;;;;;;11.55;7.28;;;10.50;99.90;;;;;;5055892;28;20564;-72
2021/10/16 05:25:17;;;;;;;8.88;7.13;;;10.50;99.90;;;;;;5056650;28;20222;-73
2021/10/16 05:27:44;;;;;;;10.73;7.50;;;10.30;99.90;;;;;;5055412;28;20223;-73
2021/10/16 05:30:11;;;;;;;12.20;8.18;;;10.20;99.90;;;;;;5055917;28;20688;-73
2021/10/16 05:32:38;;;;;;;12.30;8.07;;;10.20;99.90;;;;;;5056089;28;20231;-72
2021/10/16 05:35:06;;;;;;;13.95;8.63;;;10.10;99.90;;;;;;5057125;28;20290;-72
2021/10/16 05:37:33;;;;;;;11.60;7.97;;;10.00;99.90;;;;;;5056704;28;20271;-73
2021/10/16 05:40:01;;;;;;;10.43;7.28;;;10.10;99.90;;;;;;5056559;28;20577;-73
2021/10/16 05:42:28;;;;;;;12.60;8.38;;;10.10;99.90;;;;;;5056016;28;20294;-72
2021/10/16 05:44:55;;;;;;;11.52;7.68;;;10.10;99.90;;;;;;5056982;28;20294;-73
2021/10/16 05:47:22;;;;;;;11.13;8.57;;;10.10;99.90;;;;;;5057131;28;20219;-73
2021/10/16 05:49:49;;;;;;;12.85;7.93;;;10.20;99.90;;;;;;5057421;28;20300;-73
2021/10/16 05:52:15;;;;;;;9.95;7.00;;;10.20;99.90;;;;;;5056026;28;20279;-73
2021/10/16 05:54:42;;;;;;;10.77;8.30;;;10.30;99.90;;;;;;5055486;28;20299;-73
2021/10/16 05:57:10;;;;;;;13.50;8.32;;;10.50;99.90;;;;;;5055885;28;20739;-73
2021/10/16 05:59:38;;;;;;;11.32;8.05;;;10.40;99.90;;;;;;5056791;28;20256;-73
2021/10/16 06:02:05;;;;;;;12.70;8.13;;;10.40;99.90;;;;;;5056336;28;20214;-73
2021/10/16 06:04:32;;;;;;;12.07;7.30;;;10.30;99.90;;;;;;5057049;28;20296;-73
2021/10/16 06:06:58;;;;;;;13.38;8.65;;;10.40;99.90;;;;;;5056131;28;20688;-73
2021/10/16 06:09:25;;;;;;;11.40;7.70;;;10.40;99.90;;;;;;5055602;28;20316;-73
2021/10/16 06:11:52;;;;;;;12.63;8.27;;;10.40;99.90;;;;;;5056193;28;20298;-72
2021/10/16 06:14:20;;;;;;;10.98;8.15;;;10.40;99.90;;;;;;5056339;28;20363;-73
2021/10/16 06:16:47;;;;;;;11.60;9.10;;;10.50;99.90;;;;;;5055140;28;20216;-73
2021/10/16 06:19:14;;;;;;;13.60;9.32;;;10.40;99.90;;;;;;5055091;28;20230;-73
2021/10/16 06:21:41;;;;;;;11.35;7.80;;;10.40;99.90;;;;;;5055087;28;20211;-72
2021/10/16 06:24:07;;;;;;;11.75;8.38;;;10.30;99.90;;;;;;5054581;28;20317;-73
2021/10/16 06:26:34;;;;;;;13.35;9.20;;;10.40;99.90;;;;;;5054708;28;20286;-73
2021/10/16 06:29:01;;;;;;;12.40;8.45;;;10.50;99.90;;;;;;5054677;28;20223;-73
2021/10/16 06:31:29;;;;;;;11.98;8.25;;;10.50;99.90;;;;;;5056975;28;20203;-73
2021/10/16 06:33:56;;;;;;;11.65;8.65;;;10.40;99.90;;;;;;5060159;28;20209;-73
2021/10/16 06:36:23;;;;;;;8.45;7.18;;;10.40;99.90;;;;;;5060156;28;20254;-73
2021/10/16 06:38:50;;;;;;;13.60;8.30;;;10.30;99.90;;;;;;5060062;28;20229;-73
2021/10/16 06:41:16;;;;;;;10.82;8.05;;;10.20;99.90;;;;;;5060992;28;20294;-73
2021/10/16 06:43:43;;;;;;;9.65;7.78;;;10.20;99.90;;;;;;5059959;28;20294;-73
2021/10/16 06:46:10;;;;;;;12.45;8.82;;;10.10;99.90;;;;;;5059761;28;20204;-73
2021/10/16 06:48:38;;;;;;;12.30;8.27;;;10.10;99.90;;;;;;5059050;28;20306;-73
2021/10/16 06:51:05;;;;;;;9.90;7.80;;;10.10;99.90;;;;;;5059210;28;20302;-72
2021/10/16 06:53:32;;;;;;;11.88;8.00;;;10.10;99.90;;;;;;5057977;28;20235;-73
2021/10/16 06:55:59;;;;;;;13.90;8.55;;;10.00;99.90;;;;;;5058249;28;20219;-73
2021/10/16 06:58:26;;;;;;;12.10;8.73;;;10.10;99.90;;;;;;5057436;28;20254;-73
2021/10/16 07:00:52;;;;;;;11.15;8.30;;;10.10;99.90;;;;;;5057358;28;20203;-73
2021/10/16 07:03:19;;;;;;;11.15;8.00;;;10.20;99.90;;;;;;5057827;28;20294;-72
2021/10/16 07:05:47;;;;;;;11.98;8.93;;;10.20;99.90;;;;;;5059263;28;20218;-73
2021/10/16 07:08:14;;;;;;;11.32;8.93;;;10.30;99.90;;;;;;5059297;28;20315;-73
2021/10/16 07:10:42;;;;;;;11.43;8.50;;;10.30;99.90;;;;;;5059029;28;20200;-73
2021/10/16 07:13:10;;;;;;;11.32;8.98;;;10.30;99.90;;;;;;5059457;28;20211;-73
2021/10/16 07:15:37;;;;;;;10.80;8.05;;;10.40;99.90;;;;;;5059513;28;20200;-73
2021/10/16 07:18:04;;;;;;;9.98;8.07;;;10.40;99.90;;;;;;5059089;28;20224;-73
2021/10/16 07:20:31;;;;;;;14.52;9.25;;;10.40;99.90;;;;;;5058996;28;20683;-73
2021/10/16 07:22:59;;;;;;;12.20;8.05;;;10.40;99.90;;;;;;5058466;28;20204;-73
2021/10/16 07:25:26;;;;;;;11.77;8.25;;;10.40;99.90;;;;;;5058244;28;20215;-73
2021/10/16 07:27:54;;;;;;;11.70;9.25;;;10.50;99.90;;;;;;5058072;28;20219;-73
2021/10/16 07:30:21;;;;;;;10.70;8.52;;;10.50;99.90;;;;;;5059116;28;20203;-73
2021/10/16 07:32:48;;;;;;;13.02;9.50;;;10.50;99.90;;;;;;5058882;28;20199;-73
2021/10/16 07:35:15;;;;;;;12.07;7.65;;;10.50;99.90;;;;;;5058869;28;20207;-73
2021/10/16 07:37:42;;;;;;;12.30;8.85;;;10.50;99.90;;;;;;5057980;28;20318;-73
2021/10/16 07:40:12;;;;;;;12.88;9.32;;;10.60;99.90;;;;;;5057458;28;20209;-73
2021/10/16 07:42:39;;;;;;;11.05;8.35;;;10.70;99.90;;;;;;5056158;28;20301;-73
2021/10/16 07:45:06;;;;;;;12.95;8.15;;;10.80;99.90;;;;;;5057511;28;20208;-73
2021/10/16 07:47:33;;;;;;;12.95;8.80;;;10.80;99.90;;;;;;5057642;28;20614;-73
2021/10/16 07:50:00;;;;;;;11.80;8.82;;;10.90;99.90;;;;;;5057044;28;20302;-73
2021/10/16 07:52:27;;;;;;;14.40;9.13;;;11.00;99.90;;;;;;5057041;28;20199;-73
2021/10/16 07:54:54;;;;;;;13.40;9.75;;;11.10;99.90;;;;;;5057113;28;20211;-73
2021/10/16 07:57:22;;;;;;;12.05;8.77;;;11.20;99.90;;;;;;5056992;28;20641;-73
2021/10/16 07:59:49;;;;;;;10.68;8.48;;;11.20;99.90;;;;;;5056452;28;20725;-73
2021/10/16 08:02:16;;;;;;;13.27;9.25;;;11.30;99.90;;;;;;5056245;28;20565;-72
2021/10/16 08:04:42;;;;;;;13.75;9.93;;;11.30;99.90;;;;;;5056434;28;20210;-73
2021/10/16 08:07:09;;;;;;;11.52;9.52;;;11.30;99.90;;;;;;5056840;28;20205;-73
2021/10/16 08:09:36;;;;;;;14.05;10.13;;;11.40;99.90;;;;;;5056517;28;20223;-73
2021/10/16 08:12:03;;;;;;;14.27;10.50;;;11.40;99.90;;;;;;5055951;28;20207;-72
2021/10/16 08:14:31;;;;;;;12.73;9.98;;;11.40;99.90;;;;;;5056055;28;20214;-73
2021/10/16 08:16:58;;;;;;;10.25;8.65;;;11.50;99.90;;;;;;5056004;28;20314;-73
2021/10/16 08:19:25;;;;;;;12.32;9.32;;;11.60;99.90;;;;;;5055947;28;20259;-73
2021/10/16 08:21:51;;;;;;;15.57;11.13;;;11.70;99.90;;;;;;5055726;28;20290;-72
2021/10/16 08:24:18;;;;;;;13.60;10.43;;;11.80;99.90;;;;;;5055827;28;20242;-73
2021/10/16 08:26:45;;;;;;;13.45;9.77;;;11.80;99.90;;;;;;5055912;28;20567;-73
2021/10/16 08:29:12;;;;;;;16.65;10.32;;;11.80;99.90;;;;;;5056671;28;20219;-73
2021/10/16 08:31:40;;;;;;;15.18;10.73;;;11.70;99.90;;;;;;5055858;28;20298;-72
2021/10/16 08:34:07;;;;;;;15.10;10.18;;;11.80;99.90;;;;;;5056541;28;20214;-73
2021/10/16 08:36:34;;;;;;;12.75;9.20;;;11.80;99.90;;;;;;5056330;28;20227;-73
2021/10/16 08:39:01;;;;;;;13.15;9.13;;;11.80;99.90;;;;;;5055810;28;20243;-73
2021/10/16 08:41:27;;;;;;;11.85;8.60;;;11.80;99.90;;;;;;5055856;28;20689;-73
2021/10/16 08:43:55;;;;;;;19.08;10.63;;;11.80;99.90;;;;;;5056533;28;20294;-73
2021/10/16 08:46:24;;;;;;;18.00;11.57;;;11.80;99.90;;;;;;5056343;28;20199;-73
2021/10/16 08:48:54;;;;;;;15.80;11.45;;;11.80;99.90;;;;;;5055681;28;20227;-73
2021/10/16 08:51:20;;;;;;;15.07;11.30;;;11.70;99.90;;;;;;5054783;28;20210;-73
2021/10/16 08:53:47;;;;;;;17.88;11.55;;;11.70;99.90;;;;;;5054917;28;20294;-73
2021/10/16 08:56:14;;;;;;;20.50;13.10;;;11.80;99.90;;;;;;5055163;28;20203;-73
2021/10/16 08:58:41;;;;;;;32.55;20.02;;;11.80;99.90;;;;;;5054982;28;20255;-73
2021/10/16 09:01:08;;;;;;;20.48;13.63;;;11.80;99.90;;;;;;5054795;28;20314;-73
2021/10/16 09:03:36;;;;;;;21.58;13.73;;;11.80;99.90;;;;;;5055150;28;20230;-73
2021/10/16 09:06:08;;;;;;;18.48;12.05;;;11.80;99.90;;;;;;5055065;28;20740;-73
2021/10/16 09:08:37;;;;;;;23.73;13.00;;;11.80;99.90;;;;;;5055082;28;20227;-73
2021/10/16 09:11:35;;;;;;;22.77;12.32;;;11.90;99.90;;;;;;5054976;28;20214;-73
2021/10/16 09:14:04;;;;;;;19.80;12.63;;;12.00;99.90;;;;;;5054819;28;20207;-73
2021/10/16 09:16:37;;;;;;;23.05;14.32;;;11.90;99.90;;;;;;5054812;28;20298;-73
2021/10/16 09:19:10;;;;;;;23.90;12.88;;;11.90;99.90;;;;;;5054764;28;20223;-73
2021/10/16 09:21:40;;;;;;;22.48;12.88;;;12.00;99.90;;;;;;5054491;28;20276;-73
2021/10/16 09:24:10;;;;;;;20.27;12.93;;;12.00;99.90;;;;;;5055025;28;20207;-73
2021/10/16 09:26:38;;;;;;;18.17;13.50;;;12.00;99.90;;;;;;5054721;28;20685;-73
2021/10/16 09:29:07;;;;;;;20.48;12.63;;;12.00;99.90;;;;;;5054357;28;20312;-73
2021/10/16 09:31:36;;;;;;;18.52;12.48;;;12.00;99.90;;;;;;5054680;28;20226;-73
2021/10/16 09:34:05;;;;;;;20.13;13.77;;;11.90;99.90;;;;;;5055116;28;20203;-73
2021/10/16 09:36:32;;;;;;;18.05;12.93;;;11.90;99.90;;;;;;5054902;28;20211;-74
2021/10/16 09:39:01;;;;;;;22.23;12.38;;;11.90;99.90;;;;;;5054412;28;20219;-73
2021/10/16 09:41:30;;;;;;;18.40;12.82;;;12.00;99.90;;;;;;5054313;28;20681;-72
2021/10/16 09:43:58;;;;;;;16.77;11.40;;;12.00;99.90;;;;;;5055273;28;20235;-73
2021/10/16 09:46:25;;;;;;;16.00;11.63;;;12.20;99.90;;;;;;5055148;28;20306;-73
2021/10/16 09:48:52;;;;;;;16.90;11.70;;;12.30;99.90;;;;;;5055447;28;20223;-73
2021/10/16 09:51:20;;;;;;;17.48;12.65;;;12.40;99.90;;;;;;5055296;28;20237;-73
2021/10/16 09:53:49;;;;;;;14.63;10.88;;;12.40;99.90;;;;;;5054605;28;20216;-73
2021/10/16 09:56:17;;;;;;;18.38;12.45;;;12.50;99.90;;;;;;5055366;28;20297;-73
2021/10/16 09:58:45;;;;;;;15.80;10.88;;;12.60;99.90;;;;;;5055967;28;20723;-73
2021/10/16 10:01:12;;;;;;;17.73;11.88;;;12.60;99.90;;;;;;5055314;28;20303;-73
2021/10/16 10:03:44;;;;;;;17.38;12.35;;;12.70;99.90;;;;;;5055516;28;20287;-74
2021/10/16 10:06:17;;;;;;;17.80;12.25;;;12.70;99.90;;;;;;5055840;28;20204;-74
2021/10/16 10:08:44;;;;;;;17.38;12.80;;;12.80;99.90;;;;;;5056723;28;20250;-74
2021/10/16 10:11:11;;;;;;;22.33;12.85;;;12.80;99.90;;;;;;5056621;28;20199;-73
2021/10/16 10:13:40;;;;;;;19.15;12.63;;;12.90;99.90;;;;;;5057024;28;20360;-76
2021/10/16 10:16:07;;;;;;;20.45;12.85;;;12.90;99.90;;;;;;5057913;28;20200;-75
2021/10/16 10:21:22;;;;;;;19.05;12.75;;;12.90;99.90;;;;;;5057573;28;20554;-76
2021/10/16 10:23:53;;;;;;;16.38;12.48;;;12.90;99.90;;;;;;5052365;28;20290;-76
2021/10/16 10:26:26;;;;;;;18.48;12.13;;;12.80;99.90;;;;;;5052309;28;20218;-75
2021/10/16 10:28:56;;;;;;;23.27;13.15;;;12.80;99.90;;;;;;5053001;28;20219;-74
2021/10/16 10:32:03;;;;;;;19.45;12.05;;;12.80;99.90;;;;;;5052835;28;20207;-74
2021/10/16 10:34:34;;;;;;;19.52;12.65;;;12.90;99.90;;;;;;5053540;28;20229;-74
2021/10/16 10:37:06;;;;;;;19.83;12.13;;;13.00;99.90;;;;;;5054097;28;20250;-74
2021/10/16 10:39:47;;;;;;;19.15;13.27;;;13.20;99.90;;;;;;5053710;28;20266;-74
2021/10/16 10:42:49;;;;;;;17.48;12.30;;;13.10;99.90;;;;;;5052910;28;20203;-74
2021/10/16 10:45:41;;;;;;;19.20;12.43;;;13.30;99.90;;;;;;5053712;28;20286;-74
2021/10/16 10:48:13;;;;;;;18.17;12.38;;;13.40;99.90;;;;;;5053968;28;20223;-75
2021/10/16 10:50:49;;;;;;;19.70;13.00;;;13.40;99.90;;;;;;5053553;28;20207;-74
2021/10/16 10:53:30;;;;;;;19.85;13.70;;;13.50;99.90;;;;;;5053388;28;20620;-74
2021/10/16 10:56:01;;;;;;;16.95;12.05;;;13.60;99.90;;;;;;5052770;28;20207;-74
2021/10/16 10:58:57;;;;;;;17.33;12.82;;;13.50;99.90;;;;;;5052734;28;20266;-75
2021/10/16 11:01:50;;;;;;;16.10;12.32;;;13.60;99.90;;;;;;5052792;28;20200;-70
2021/10/16 11:04:35;;;;;;;16.38;11.02;;;13.90;99.90;;;;;;5052522;28;20208;-71
2021/10/16 11:07:04;;;;;;;15.88;11.55;;;13.90;99.90;;;;;;5052499;28;20264;-71
2021/10/16 11:09:31;;;;;;;17.45;12.30;;;14.10;99.90;;;;;;5052840;28;20634;-72
2021/10/16 11:11:59;;;;;;;17.33;12.10;;;14.40;99.90;;;;;;5052701;28;20701;-72
2021/10/16 11:14:37;;;;;;;17.75;13.10;;;14.60;99.90;;;;;;5053000;28;20670;-72
2021/10/16 11:17:06;;;;;;;16.67;12.13;;;14.50;99.90;;;;;;5053431;28;20294;-72
2021/10/16 11:19:47;;;;;;;16.42;11.95;;;14.30;99.90;;;;;;5056200;28;20235;-72
2021/10/16 11:22:14;;;;;;;20.58;11.98;;;14.20;99.90;;;;;;5056557;28;20208;-73
2021/10/16 11:24:41;;;;;;;15.43;11.13;;;14.10;99.90;;;;;;5055779;28;20225;-74
2021/10/16 11:27:08;;;;;;;14.95;11.25;;;14.20;99.90;;;;;;5056266;28;20207;-72
2021/10/16 11:29:37;;;;;;;17.98;12.02;;;14.10;99.90;;;;;;5055874;28;20316;-73
2021/10/16 11:32:17;;;;;;;18.98;12.18;;;14.10;99.90;;;;;;5055771;28;20561;-73
2021/10/16 11:34:56;;;;;;;15.65;12.00;;;14.20;99.90;;;;;;5056453;28;20287;-73
2021/10/16 11:37:44;;;;;;;16.13;10.82;;;14.30;99.90;;;;;;5056520;28;20242;-74
2021/10/16 11:40:15;;;;;;;16.17;11.57;;;14.40;99.90;;;;;;5056416;28;20200;-73
2021/10/16 11:42:45;;;;;;;19.08;12.80;;;14.50;99.90;;;;;;5055975;28;20211;-74
2021/10/16 11:45:14;;;;;;;17.05;11.93;;;14.40;99.90;;;;;;5056807;28;20208;-74
2021/10/16 11:47:45;;;;;;;21.50;12.55;;;14.40;99.90;;;;;;5056264;28;20224;-74
2021/10/16 11:50:17;;;;;;;19.02;11.45;;;14.40;99.90;;;;;;5056284;28;20209;-74
2021/10/16 11:52:45;;;;;;;17.33;11.88;;;14.50;99.90;;;;;;5056068;28;20200;-75
2021/10/16 11:55:15;;;;;;;18.95;12.07;;;14.40;99.90;;;;;;5055971;28;20713;-74
2021/10/16 11:57:42;;;;;;;14.20;10.63;;;14.80;99.90;;;;;;5056072;28;20311;-74
2021/10/16 12:00:23;;;;;;;16.10;11.60;;;14.90;99.90;;;;;;5055530;28;20220;-74
2021/10/16 12:02:52;;;;;;;15.88;11.18;;;15.00;99.90;;;;;;5056398;28;20299;-73
2021/10/16 12:05:21;;;;;;;15.38;11.25;;;15.00;99.90;;;;;;5055902;28;20211;-74
2021/10/16 12:07:49;;;;;;;19.55;11.02;;;15.10;99.90;;;;;;5056446;28;20231;-75
2021/10/16 12:10:29;;;;;;;16.65;11.63;;;15.20;99.90;;;;;;5056404;28;20206;-74
2021/10/16 12:13:04;;;;;;;14.52;11.48;;;15.30;99.90;;;;;;5057366;28;20605;-75
2021/10/16 12:15:35;;;;;;;15.63;11.60;;;15.30;99.90;;;;;;5056856;28;20216;-74
2021/10/16 12:18:04;;;;;;;16.27;11.70;;;15.10;99.90;;;;;;5056547;28;20572;-73
2021/10/16 12:20:46;;;;;;;15.25;10.77;;;14.80;99.90;;;;;;5056112;28;20686;-76
2021/10/16 12:23:13;;;;;;;16.65;11.68;;;14.90;99.90;;;;;;5057029;28;20296;-76
2021/10/16 12:25:48;;;;;;;14.40;10.60;;;15.10;99.90;;;;;;5056695;28;20211;-72
2021/10/16 12:28:15;;;;;;;13.70;10.27;;;15.40;99.90;;;;;;5053737;28;20708;-74
2021/10/16 12:31:02;;;;;;;17.33;10.30;;;15.60;99.90;;;;;;5054661;28;20209;-73
2021/10/16 12:33:30;;;;;;;15.88;11.10;;;15.30;99.90;;;;;;5054439;28;20294;-74
2021/10/16 12:35:59;;;;;;;11.90;8.95;;;15.20;99.90;;;;;;5054718;28;20689;-74
2021/10/16 12:38:27;;;;;;;14.65;9.77;;;15.00;99.90;;;;;;5055154;28;20240;-73
2021/10/16 12:40:54;;;;;;;13.90;9.95;;;14.90;99.90;;;;;;5055212;28;20205;-74
2021/10/16 12:43:27;;;;;;;16.40;11.10;;;14.80;99.90;;;;;;5054438;28;20212;-74
2021/10/16 12:45:55;;;;;;;14.68;10.40;;;14.60;99.90;;;;;;5055660;28;20212;-75